Unlu-5 — TCON5 — position and weather

sailwx.info

Track history (hours):
 
Tides and Currents Weather Stations Pressure Air Temp Water Temp Dewpoint Dewpoint Depression Visibility Wind Speed Wind Dir Waves Ship Positions

Unlu-5

Last reported at 2015-Jan-30 01:33 UTC. Time now 2015-Jan-31 05:31 UTC.
Position N 35°55' W 005°15'.

Length 99 m; draft 6.2 m.

Type: Cargo ship. MMSI: 271000854.

Date/timePositionNaut miles runAvg speedWind from/ knotsBaromVisibWave heightAir tempDewpointWater temp
2015-Jan-30 01:33N 35°55' W 005°15'4 3.6
2015-Jan-30 00:33N 35°54' W 005°19'0 0.0
2015-Jan-29 23:33N 35°54' W 005°19'0 0.0
2015-Jan-29 22:33N 35°54' W 005°19'1 0.5
2015-Jan-29 21:34N 35°54' W 005°19'8 7.9
2015-Jan-29 20:32N 35°56' W 005°28'  
2015-Jan-26 16:33N 35°58' W 005°35'7 7.4
2015-Jan-26 15:33N 36°00' W 005°27'6 6.5
2015-Jan-26 14:33N 36°02' W 005°19'7 7.3
2015-Jan-26 13:33N 36°04' W 005°10'  
Track history (hours):
 
Tides and Currents Weather Stations Pressure Air Temp Water Temp Dewpoint Dewpoint Depression Visibility Wind Speed Wind Dir Waves Ship Positions

Unlu-5

Last reported at 2015-Jan-30 01:33 UTC. Time now 2015-Jan-31 05:31 UTC.
Position N 35°55' W 005°15'.

Length 99 m; draft 6.2 m.

Type: Cargo ship. MMSI: 271000854.

Date/timePositionNaut miles runAvg speedWind from/ knotsBaromVisibWave heightAir tempDewpointWater temp
2015-Jan-30 01:33N 35°55' W 005°15'4 3.6
2015-Jan-30 00:33N 35°54' W 005°19'0 0.0
2015-Jan-29 23:33N 35°54' W 005°19'0 0.0
2015-Jan-29 22:33N 35°54' W 005°19'1 0.5
2015-Jan-29 21:34N 35°54' W 005°19'8 7.9
2015-Jan-29 20:32N 35°56' W 005°28'  
2015-Jan-26 16:33N 35°58' W 005°35'7 7.4
2015-Jan-26 15:33N 36°00' W 005°27'6 6.5
2015-Jan-26 14:33N 36°02' W 005°19'7 7.3
2015-Jan-26 13:33N 36°04' W 005°10'  

Dump ship's entire track history